Flight Track Log - Related Links

Times and Time Zones

All times are in EDT time to prevent confusion due to time zone crossing. See the JZA8180 flight status page for this flight to view local times or setup timezone preferences in your user account.

Time Position Orientation Groundspeed Altitude Reporting Facility
EDT Latitude Longitude Course Direction KTS MPH feet Rate Location/Type
Wed 04:02:36 PM 49.1667 -123.2333 36° Northeast 130 150 1,600  Level Vancouver Center
Wed 04:03:36 PM 49.1833 -123.2833 297° West 130 150 3,500 1,750 Climbing Vancouver Center
Wed 04:04:36 PM 49.2167 -123.3167 327° Northwest 140 161 5,100 1,550 Climbing Vancouver Center
Wed 04:05:36 PM 49.2500 -123.3167 360° North 150 173 6,600 1,200 Climbing Vancouver Center
Wed 04:06:36 PM 49.2833 -123.2667 44° Northeast 170 196 7,500 1,050 Climbing Vancouver Center
Wed 04:07:00 PM 49.3499 -122.8460 36° Northeast  Level FlightAware Approximate
Wed 04:07:36 PM 49.3333 -123.2167 33° Northeast 200 230 8,700  Level Vancouver Center
Wed 04:08:00 PM 49.4141 -122.7738 36° Northeast  Level FlightAware Approximate
Wed 04:08:36 PM 49.3667 -123.1667 44° Northeast 200 230 9,700  Level Vancouver Center
Wed 04:09:36 PM 49.4167 -123.0833 47° Northeast 210 242 10,700 1,050 Climbing Vancouver Center
Wed 04:10:36 PM 49.4500 -123.0333 44° Northeast 210 242 11,800 1,050 Climbing Vancouver Center
Wed 04:11:36 PM 49.5000 -122.9500 47° Northeast 210 242 12,800 900 Climbing Vancouver Center
Wed 04:12:36 PM 49.5333 -122.9000 44° Northeast 210 242 13,600 850 Climbing Vancouver Center
Wed 04:13:36 PM 49.5833 -122.8167 47° Northeast 230 265 14,500 900 Climbing Vancouver Center
Wed 04:14:36 PM 49.6333 -122.7500 41° Northeast 230 265 15,400 850 Climbing Vancouver Center
Wed 04:15:36 PM 49.6667 -122.6833 52° Northeast 230 265 16,200 800 Climbing Vancouver Center
Wed 04:16:36 PM 49.7167 -122.6167 41° Northeast 230 265 17,000 450 Climbing Vancouver Center
Wed 04:17:36 PM 49.7667 -122.5333 47° Northeast 240 276 17,100 50 Climbing Vancouver Center
Wed 04:18:36 PM 49.8167 -122.4500 47° Northeast 260 299 17,100  Level Vancouver Center
Wed 04:19:36 PM 49.8667 -122.3667 47° Northeast 280 322 17,100  Level Vancouver Center
Wed 04:20:36 PM 49.9333 -122.2667 44° Northeast 280 322 17,100  Level Vancouver Center
Wed 04:21:36 PM 49.9833 -122.1833 47° Northeast 290 334 17,100  Level Vancouver Center
Wed 04:22:36 PM 50.0333 -122.1167 41° Northeast 290 334 17,100  Level Vancouver Center
Wed 04:23:36 PM 50.1000 -122.0000 48° Northeast 290 334 17,100 -50 Level Vancouver Center
Wed 04:24:36 PM 50.1333 -121.9167 58° Northeast 290 334 17,000 -50 Descending Vancouver Center
Wed 04:25:36 PM 50.2000 -121.8500 33° Northeast 290 334 17,000  Level Vancouver Center
Wed 04:26:36 PM 50.2500 -121.7333 56° Northeast 280 322 17,000 -50 Level Vancouver Center
Wed 04:27:36 PM 50.3167 -121.6500 39° Northeast 280 322 16,900 -600 Descending Vancouver Center
Wed 04:28:36 PM 50.3667 -121.5500 52° Northeast 300 345 15,800 -1,200 Descending Vancouver Center
Wed 04:29:36 PM 50.4333 -121.4667 39° Northeast 310 357 14,500 -1,450 Descending Vancouver Center
Wed 04:30:36 PM 50.4833 -121.3500 56° Northeast 310 357 12,900 -1,550 Descending Vancouver Center
Wed 04:31:36 PM 50.5500 -121.2833 32° Northeast 290 334 11,400 -1,450 Descending Vancouver Center
Wed 04:32:36 PM 50.6000 -121.1667 56° Northeast 290 334 10,000 -1,450 Descending Vancouver Center
Wed 04:33:36 PM 50.6500 -121.0833 47° Northeast 270 311 8,500 -1,200 Descending Vancouver Center
Wed 04:34:36 PM 50.6833 -121.0000 58° Northeast 240 276 7,600 -950 Descending Vancouver Center
Wed 04:35:36 PM 50.7000 -120.9167 72° East 220 253 6,600 -900 Descending Vancouver Center
Wed 04:36:36 PM 50.7333 -120.8500 52° Northeast 220 253 5,800 -1,100 Descending Vancouver Center
Wed 04:37:36 PM 50.7333 -120.7333 90° East 220 253 4,400 -1,500 Descending Vancouver Center
Wed 04:38:36 PM 50.7333 -120.6333 90° East 220 253 2,800 -950 Descending Vancouver Center
Wed 04:39:36 PM 50.7167 -120.5500 108° East 210 242 2,500 -300 Descending Vancouver Center

Login

Don't have an account? Register now (free) for customized features, flight alerts, and more!